Meridian Naval Air Station
KNMM : now visible

Airfield :











YOU CAN JOIN US ON...

 
LOGIN :

Register | Disclaimer

   EN    FR    IT 

 









Legend :    VFR   Marginal VFR   IFR   Intensive IFR   Very Intensive IFR
Visi :
Ceiling :
>= 8 km
>= 3000ft
5 to 8 km
1000 to 3000 ft
1500m to 5 km
500 to 1000 ft
800 to 1500m
200 to 500 ft
< 800m
< 200 ft
Symbols :   Thunderstorms  Fog  Heavy snow  Heavy precipitations  Wind > 20 kt






- Airport Elevation : 316 ft


KNMM - Meridian Naval Air Station

CURRENT METAR :
  • 230056Z AUTO 34003KT 10SM CLR 17/14 A3006 RMK AO2 SLP190 T01720139 $

EXPIRED METARs :
  • 222356Z AUTO 36003KT 10SM CLR 18/14 A3005 RMK AO2 SLP185 T01780139 10256 20172 53003 $
  • 222256Z 00000KT 10SM FEW200 21/13 A3004 RMK AO2 SLP180 T02060128 $

TAF COR TAF KNMM
Valid from the 22 at 21:00 until the 23 at 15:00 UTC


2221/2315 33006KT 9999 FEW050 FEW200 QNH2999INS
FM230100 VRB04KT 9999 SKC QNH3003INS
TEMPO 2310/2316 6000 BR SCT002 LAST NO AMDS AFT 2223/ NEXT 2415 AUTOMATED SENSOR METWATCH 2323 TIL 2520 T26/2220Z T11/2314Z AMD 2100 FN20088
KZME FIR / North America



MET'MAP, your aeronautical weather chart ! - Copyright ORBIFLY December 2007 - Disclaimer

ORBIFLY MET'MAP TEAM :

Programming & Development : Alexandra Zaïnal
Concept & original design : Baudouin d'Aumeries
Assistance for programming : Marc-Olivier Méhu
Technical & hardware support : Manuel Goepfert

Contact : metmap@orbifly.com




SOURCES & CREDITS :

   NOAA       Earth
Advisory